createdAt,value
2022-09-10T00:01:33.898Z,68.58
2022-09-10T00:04:04.441Z,68.92
2022-09-10T00:06:35.217Z,68.55
2022-09-10T00:09:03.597Z,69.30
2022-09-10T00:11:35.183Z,68.94
2022-09-10T00:14:05.929Z,69.19
2022-09-10T00:16:34.500Z,68.99
2022-09-10T00:19:04.222Z,69.01
2022-09-10T00:21:32.234Z,69.21
2022-09-10T00:24:02.193Z,69.02
2022-09-10T00:26:34.515Z,69.36
2022-09-10T00:29:02.910Z,69.08
2022-09-10T00:31:32.711Z,69.27
2022-09-10T00:34:03.436Z,69.33
2022-09-10T00:36:36.619Z,68.79
2022-09-10T00:39:08.554Z,68.99
2022-09-10T00:41:40.365Z,68.69
2022-09-10T00:44:48.140Z,68.99
2022-09-10T00:47:20.772Z,69.06
2022-09-10T00:49:55.070Z,69.00
2022-09-10T00:52:24.430Z,68.90
2022-09-10T00:54:53.230Z,68.69
2022-09-10T00:57:24.815Z,68.17
2022-09-10T01:00:00.175Z,68.54
2022-09-10T01:02:29.615Z,69.72
2022-09-10T01:05:00.095Z,68.84
2022-09-10T01:07:30.180Z,68.90
2022-09-10T01:09:59.880Z,68.84
2022-09-10T01:13:13.110Z,69.61
2022-09-10T01:15:48.109Z,69.97
2022-09-10T01:18:31.533Z,70.19
2022-09-10T01:21:19.268Z,70.35
2022-09-10T01:24:15.258Z,70.53
2022-09-10T01:27:42.528Z,70.33
2022-09-10T01:30:17.987Z,69.91
2022-09-10T01:33:06.536Z,70.73
2022-09-10T01:35:43.132Z,70.56
2022-09-10T01:38:21.559Z,70.61
2022-09-10T01:40:50.319Z,70.52
2022-09-10T01:43:22.890Z,70.55
2022-09-10T01:46:13.280Z,69.93
2022-09-10T01:49:08.142Z,69.65
2022-09-10T01:51:52.300Z,69.85
2022-09-10T01:54:40.652Z,69.88
2022-09-10T01:57:20.539Z,69.97
2022-09-10T02:00:00.385Z,70.06
2022-09-10T02:02:35.008Z,70.08
2022-09-10T02:05:07.708Z,70.49
2022-09-10T02:07:38.172Z,70.23
2022-09-10T02:10:10.494Z,70.14
2022-09-10T02:12:46.726Z,70.08
2022-09-10T02:15:29.369Z,70.34
2022-09-10T02:18:09.486Z,70.12
2022-09-10T02:20:38.789Z,70.25
2022-09-10T02:23:09.166Z,70.28
2022-09-10T02:25:38.235Z,70.55
2022-09-10T02:28:07.177Z,70.52
2022-09-10T02:30:35.304Z,70.62
2022-09-10T02:33:03.447Z,70.44
2022-09-10T02:35:33.941Z,70.53
2022-09-10T02:38:01.955Z,70.51
2022-09-10T02:40:31.772Z,70.84
2022-09-10T02:42:59.889Z,70.82
2022-09-10T02:45:29.561Z,70.90
2022-09-10T02:47:57.683Z,70.71
2022-09-10T02:50:26.055Z,70.76
2022-09-10T02:52:55.438Z,70.69
2022-09-10T02:55:23.492Z,70.43
2022-09-10T02:57:51.594Z,70.42
2022-09-10T03:00:20.299Z,70.60
2022-09-10T03:02:48.917Z,70.57
2022-09-10T03:05:17.445Z,70.53
2022-09-10T03:07:46.092Z,70.33
2022-09-10T03:10:15.461Z,70.58
2022-09-10T03:12:43.962Z,70.74
2022-09-10T03:15:12.730Z,70.57
2022-09-10T03:17:40.739Z,70.96
2022-09-10T03:20:09.973Z,70.52
2022-09-10T03:22:38.277Z,70.54
2022-09-10T03:25:08.134Z,70.49
2022-09-10T03:27:38.269Z,70.48
2022-09-10T03:30:10.626Z,70.09
2022-09-10T03:32:38.829Z,71.02
2022-09-10T03:38:27.653Z,70.61
2022-09-10T03:40:56.633Z,70.54
2022-09-10T03:43:27.049Z,70.50
2022-09-10T03:45:55.424Z,70.79
2022-09-10T03:48:24.520Z,71.01
2022-09-10T03:50:52.877Z,71.24
2022-09-10T03:53:20.941Z,71.09
2022-09-10T03:55:51.942Z,71.16
2022-09-10T03:58:20.250Z,71.47
2022-09-10T04:00:49.732Z,71.13
2022-09-10T04:03:20.197Z,70.83
2022-09-10T04:05:48.633Z,71.06
2022-09-10T04:08:17.280Z,71.25
2022-09-10T04:10:46.261Z,71.21
2022-09-10T04:13:14.903Z,70.80
2022-09-10T04:15:46.041Z,70.78
2022-09-10T04:18:15.745Z,70.78
2022-09-10T04:20:47.921Z,70.91
2022-09-10T04:23:17.485Z,70.80
2022-09-10T04:25:47.593Z,70.86
2022-09-10T04:28:16.018Z,70.59
2022-09-10T04:30:47.144Z,70.67
2022-09-10T04:33:17.555Z,71.19
2022-09-10T04:35:46.633Z,71.37
2022-09-10T04:38:14.877Z,71.26
2022-09-10T04:40:47.656Z,71.24
2022-09-10T04:43:15.832Z,71.04
2022-09-10T04:45:45.038Z,71.06
2022-09-10T04:48:13.694Z,70.92
2022-09-10T04:50:59.392Z,70.93
2022-09-10T04:53:38.560Z,70.64
2022-09-10T04:56:07.661Z,71.03
2022-09-10T04:58:39.296Z,70.69
2022-09-10T05:01:08.198Z,70.28
2022-09-10T05:03:36.346Z,70.78
2022-09-10T05:06:06.690Z,70.50
2022-09-10T05:08:36.133Z,70.73
2022-09-10T05:11:06.300Z,70.36
2022-09-10T05:13:34.978Z,70.76
2022-09-10T05:16:03.631Z,70.48
2022-09-10T05:18:34.004Z,70.64
2022-09-10T05:21:02.291Z,70.61
2022-09-10T05:23:31.958Z,70.28
2022-09-10T05:26:01.945Z,70.48
2022-09-10T05:28:31.534Z,70.63
2022-09-10T05:30:59.869Z,70.39
2022-09-10T05:33:29.719Z,70.39
2022-09-10T05:35:58.123Z,70.80
2022-09-10T05:38:26.626Z,70.69
2022-09-10T05:40:57.087Z,71.06
2022-09-10T05:43:25.291Z,70.60
2022-09-10T05:45:53.415Z,71.00
2022-09-10T05:48:22.433Z,70.77
2022-09-10T05:50:50.849Z,71.07
2022-09-10T05:53:19.087Z,70.87
2022-09-10T05:55:47.157Z,70.58
2022-09-10T05:58:18.247Z,70.90
2022-09-10T06:00:50.551Z,71.01
2022-09-10T06:03:19.856Z,70.92
2022-09-10T06:05:51.282Z,71.16
2022-09-10T06:08:24.160Z,70.94
2022-09-10T06:10:58.679Z,71.46
2022-09-10T06:13:30.418Z,70.92
2022-09-10T06:16:00.262Z,70.45
2022-09-10T06:18:30.063Z,70.73
2022-09-10T06:21:07.659Z,71.14
2022-09-10T06:23:36.432Z,71.38
2022-09-10T06:26:08.126Z,71.30
2022-09-10T06:28:39.871Z,70.39
2022-09-10T06:31:11.911Z,70.76
2022-09-10T06:33:40.001Z,70.49
2022-09-10T06:36:08.556Z,70.42
2022-09-10T06:38:38.956Z,70.88
2022-09-10T06:41:12.484Z,70.82
2022-09-10T06:43:49.555Z,70.76
2022-09-10T06:47:01.677Z,70.55
2022-09-10T06:49:17.372Z,70.92
2022-09-10T06:51:49.105Z,71.09
2022-09-10T06:54:18.809Z,71.05
2022-09-10T06:56:49.026Z,70.54
2022-09-10T06:59:19.044Z,71.10
2022-09-10T07:01:49.856Z,71.88
2022-09-10T07:04:19.435Z,71.15
2022-09-10T07:06:47.670Z,71.67
2022-09-10T07:09:17.474Z,71.74
2022-09-10T07:12:00.236Z,71.04
2022-09-10T07:14:33.213Z,71.10
2022-09-10T07:17:05.013Z,71.05
2022-09-10T07:19:36.256Z,71.23
2022-09-10T07:22:06.977Z,70.80
2022-09-10T07:24:35.857Z,70.56
2022-09-10T07:27:11.971Z,70.79
2022-09-10T07:29:44.313Z,70.38
2022-09-10T07:32:16.353Z,70.15
2022-09-10T07:34:44.448Z,70.11
2022-09-10T07:37:15.541Z,71.62
2022-09-10T07:39:43.783Z,71.97
2022-09-10T07:42:12.448Z,69.87
2022-09-10T07:44:41.926Z,70.67
2022-09-10T07:47:11.317Z,70.89
2022-09-10T07:49:39.718Z,69.53
2022-09-10T07:52:09.081Z,69.63
2022-09-10T07:54:44.833Z,69.75
2022-09-10T07:57:13.000Z,69.18
2022-09-10T07:59:41.594Z,69.28
2022-09-10T08:02:15.284Z,69.64
2022-09-10T08:04:46.915Z,67.83
2022-09-10T08:07:17.291Z,67.41
2022-09-10T08:09:45.454Z,67.69
2022-09-10T08:12:17.652Z,67.30
2022-09-10T08:14:47.484Z,67.77
2022-09-10T08:17:17.993Z,67.58
2022-09-10T08:19:46.985Z,67.89
2022-09-10T08:22:15.856Z,68.47
2022-09-10T08:24:51.106Z,68.16
2022-09-10T08:27:19.426Z,67.70
2022-09-10T08:29:49.234Z,66.71
2022-09-10T08:32:18.647Z,67.10
2022-09-10T08:34:46.808Z,65.79
2022-09-10T08:37:16.167Z,65.24
2022-09-10T08:39:45.060Z,64.64
2022-09-10T08:42:21.611Z,64.18
2022-09-10T08:44:55.145Z,64.92
2022-09-10T08:47:37.555Z,65.00
2022-09-10T08:50:19.059Z,64.44
2022-09-10T08:52:53.106Z,65.31
2022-09-10T08:55:30.522Z,65.23
2022-09-10T08:58:04.732Z,65.22
2022-09-10T09:00:37.918Z,65.04
2022-09-10T09:03:22.481Z,64.39
2022-09-10T09:05:55.527Z,63.77
2022-09-10T09:08:34.280Z,64.11
2022-09-10T09:11:17.745Z,62.87
2022-09-10T09:14:05.848Z,63.40
2022-09-10T09:16:59.622Z,61.30
2022-09-10T09:19:35.292Z,61.37
2022-09-10T09:22:18.116Z,62.41
2022-09-10T09:24:57.352Z,61.89
2022-09-10T09:27:31.175Z,62.19
2022-09-10T09:30:04.070Z,61.40
2022-09-10T09:32:41.770Z,61.78
2022-09-10T09:35:26.042Z,61.28
2022-09-10T09:38:13.697Z,60.47
2022-09-10T09:40:48.105Z,60.83
2022-09-10T09:43:29.736Z,61.09
2022-09-10T09:45:58.357Z,60.81
2022-09-10T09:48:38.636Z,60.87
2022-09-10T09:51:12.300Z,62.11
2022-09-10T09:53:44.038Z,61.40
2022-09-10T09:56:22.396Z,60.93
2022-09-10T09:58:52.026Z,61.45
2022-09-10T10:01:24.073Z,61.39
2022-09-10T10:04:01.639Z,61.18
2022-09-10T10:06:34.571Z,61.79
2022-09-10T10:09:07.076Z,62.37
2022-09-10T10:11:46.476Z,62.51
2022-09-10T10:14:35.158Z,62.58
2022-09-10T10:17:03.403Z,61.97
2022-09-10T10:19:36.518Z,62.53
2022-09-10T10:22:27.779Z,61.73
2022-09-10T10:24:55.850Z,61.87
2022-09-10T10:27:32.713Z,62.18
2022-09-10T10:30:06.090Z,62.75
2022-09-10T10:32:44.583Z,64.30
2022-09-10T10:35:44.167Z,64.32
2022-09-10T10:38:34.425Z,64.07
2022-09-10T10:41:29.647Z,63.73
2022-09-10T10:44:28.910Z,62.39
2022-09-10T10:47:20.662Z,61.35
2022-09-10T10:50:01.484Z,62.64
2022-09-10T10:52:41.441Z,62.33
2022-09-10T10:55:23.188Z,61.92
2022-09-10T10:58:20.200Z,62.82
2022-09-10T11:00:55.292Z,63.08
2022-09-10T11:03:30.054Z,62.72
2022-09-10T11:06:05.164Z,63.67
2022-09-10T11:08:41.858Z,63.31
2022-09-10T11:11:18.130Z,61.95
2022-09-10T11:13:52.458Z,60.09
2022-09-10T11:16:26.653Z,59.20
2022-09-10T11:19:03.098Z,58.93
2022-09-10T11:21:38.551Z,56.32
2022-09-10T11:24:16.976Z,56.96
2022-09-10T11:26:54.025Z,57.35
2022-09-10T11:29:38.761Z,58.56
2022-09-10T11:32:15.885Z,58.49
2022-09-10T11:34:58.701Z,58.59
2022-09-10T11:37:47.793Z,58.72
2022-09-10T11:40:24.353Z,60.65
2022-09-10T11:42:59.436Z,61.92
2022-09-10T11:45:40.524Z,62.05
2022-09-10T11:48:19.536Z,60.23
2022-09-10T11:50:54.334Z,60.18
2022-09-10T11:53:24.745Z,60.13
2022-09-10T11:56:19.821Z,59.64
2022-09-10T11:59:05.802Z,59.68
2022-09-10T12:02:02.454Z,59.62
2022-09-10T12:04:47.725Z,59.15
2022-09-10T12:07:31.477Z,59.50
2022-09-10T12:10:17.107Z,57.64
2022-09-10T12:12:50.146Z,58.60
2022-09-10T12:15:24.632Z,57.20
2022-09-10T12:17:58.600Z,56.18
2022-09-10T12:20:33.160Z,55.88
2022-09-10T12:23:01.982Z,55.96
2022-09-10T12:25:34.958Z,55.24
2022-09-10T12:28:07.950Z,55.11
2022-09-10T12:31:03.767Z,55.54
2022-09-10T12:34:16.887Z,54.27
2022-09-10T12:37:24.739Z,54.24
2022-09-10T12:40:47.352Z,53.88
2022-09-10T12:43:54.043Z,55.14
2022-09-10T12:46:24.340Z,55.80
2022-09-10T12:49:11.252Z,55.06
2022-09-10T12:51:57.644Z,56.07
2022-09-10T12:54:46.978Z,56.42
2022-09-10T12:57:31.001Z,55.21
2022-09-10T13:00:22.007Z,53.95
2022-09-10T13:03:09.434Z,54.14
2022-09-10T13:05:51.498Z,53.67
2022-09-10T13:08:25.721Z,54.54
2022-09-10T13:11:16.432Z,54.04
2022-09-10T13:13:52.327Z,54.51
2022-09-10T13:16:38.193Z,53.85
2022-09-10T13:19:53.779Z,54.02
2022-09-10T13:22:58.028Z,54.46
2022-09-10T13:25:39.989Z,53.27
2022-09-10T13:29:02.821Z,53.81
2022-09-10T13:31:35.825Z,54.00
2022-09-10T13:34:31.527Z,53.84
2022-09-10T13:37:24.894Z,52.70
2022-09-10T13:40:33.577Z,54.19
2022-09-10T13:43:26.532Z,54.07
2022-09-10T13:46:00.669Z,55.35
2022-09-10T13:48:35.552Z,59.18
2022-09-10T13:51:16.183Z,61.33
2022-09-10T13:53:49.023Z,63.33
2022-09-10T13:56:24.133Z,64.77
2022-09-10T13:58:56.564Z,66.26
2022-09-10T14:01:50.471Z,67.46
2022-09-10T14:04:27.627Z,66.95
2022-09-10T14:07:02.794Z,68.04
2022-09-10T14:09:32.979Z,67.84
2022-09-10T14:12:04.452Z,68.42
2022-09-10T14:14:40.415Z,68.85
2022-09-10T14:17:13.172Z,68.79
2022-09-10T14:19:49.346Z,68.54
2022-09-10T14:22:22.151Z,68.89
2022-09-10T14:24:55.128Z,68.58
2022-09-10T14:27:26.916Z,69.08
2022-09-10T14:29:57.374Z,68.74
2022-09-10T14:32:36.271Z,69.73
2022-09-10T14:35:40.713Z,69.16
2022-09-10T14:38:26.850Z,69.02
2022-09-10T14:41:04.315Z,68.79
2022-09-10T14:43:38.086Z,68.26
2022-09-10T14:46:08.784Z,68.76
2022-09-10T14:48:40.940Z,67.87
2022-09-10T14:51:18.531Z,67.92
2022-09-10T14:53:51.391Z,67.93
2022-09-10T14:56:26.502Z,67.05
2022-09-10T14:59:00.898Z,67.07
2022-09-10T15:01:30.507Z,66.49
2022-09-10T15:03:59.763Z,65.95
2022-09-10T15:06:27.976Z,65.40
2022-09-10T15:08:57.058Z,64.36
2022-09-10T15:11:29.202Z,64.23
2022-09-10T15:13:59.323Z,63.63
2022-09-10T15:16:27.959Z,64.05
2022-09-10T15:18:58.212Z,63.39
2022-09-10T15:21:26.645Z,64.16
2022-09-10T15:23:54.902Z,64.99
2022-09-10T15:26:23.441Z,65.92
2022-09-10T15:28:55.740Z,66.49
2022-09-10T15:31:32.034Z,67.16
2022-09-10T15:34:00.622Z,68.04
2022-09-10T15:36:28.853Z,68.50
2022-09-10T15:38:59.587Z,69.28
2022-09-10T15:41:28.446Z,69.94
2022-09-10T15:43:58.130Z,70.52
2022-09-10T15:46:26.517Z,71.32
2022-09-10T15:48:56.859Z,71.08
2022-09-10T15:51:25.459Z,71.98
2022-09-10T15:53:55.406Z,71.74
2022-09-10T15:56:26.977Z,71.32
2022-09-10T15:58:58.612Z,71.12
2022-09-10T16:01:29.146Z,71.33
2022-09-10T16:04:02.674Z,71.38
2022-09-10T16:06:34.608Z,70.91
2022-09-10T16:09:06.727Z,70.84
2022-09-10T16:11:37.366Z,70.13
2022-09-10T16:14:11.974Z,70.16
2022-09-10T16:16:41.381Z,70.29
2022-09-10T16:19:12.869Z,69.65
2022-09-10T16:21:41.488Z,69.45
2022-09-10T16:24:10.862Z,69.65
2022-09-10T16:26:42.368Z,69.73
2022-09-10T16:29:16.829Z,69.69
2022-09-10T16:31:46.021Z,69.83
2022-09-10T16:34:18.393Z,69.55
2022-09-10T16:36:48.819Z,69.35
2022-09-10T16:39:19.366Z,69.65
2022-09-10T16:41:49.769Z,70.26
2022-09-10T16:44:20.214Z,70.34
2022-09-10T16:46:49.531Z,70.44
2022-09-10T16:49:19.782Z,69.98
2022-09-10T16:51:49.939Z,70.23
2022-09-10T16:54:20.066Z,70.58
2022-09-10T16:56:49.360Z,69.78
2022-09-10T16:59:21.404Z,70.05
2022-09-10T17:01:52.037Z,69.99
2022-09-10T17:04:27.762Z,70.11
2022-09-10T17:06:57.011Z,70.02
2022-09-10T17:09:25.764Z,69.54
2022-09-10T17:11:54.151Z,69.96
2022-09-10T17:14:24.443Z,69.65
2022-09-10T17:16:53.105Z,68.87
2022-09-10T17:19:24.022Z,68.91
2022-09-10T17:21:55.511Z,69.56
2022-09-10T17:24:26.703Z,69.30
2022-09-10T17:26:56.033Z,69.31
2022-09-10T17:29:26.860Z,69.73
2022-09-10T17:31:57.295Z,69.17
2022-09-10T17:34:26.586Z,69.19
2022-09-10T17:36:55.001Z,69.20
2022-09-10T17:39:27.988Z,69.04
2022-09-10T17:41:56.358Z,68.70
2022-09-10T17:44:26.958Z,68.60
2022-09-10T17:46:55.523Z,68.26
2022-09-10T17:49:24.438Z,68.19
2022-09-10T17:51:53.266Z,67.83
2022-09-10T17:54:21.679Z,68.24
2022-09-10T17:56:49.820Z,68.43
2022-09-10T17:59:17.883Z,68.22
2022-09-10T18:01:47.928Z,68.45
2022-09-10T18:04:16.124Z,68.02
2022-09-10T18:06:47.843Z,67.44
2022-09-10T18:09:17.763Z,67.91
2022-09-10T18:11:45.957Z,67.36
2022-09-10T18:14:18.555Z,67.42
2022-09-10T18:16:48.090Z,67.10
2022-09-10T18:19:18.804Z,67.31
2022-09-10T18:21:49.124Z,66.86
2022-09-10T18:24:22.436Z,66.99
2022-09-10T18:26:53.794Z,67.76
2022-09-10T18:29:24.694Z,67.52
2022-09-10T18:31:56.889Z,67.34
2022-09-10T18:34:27.647Z,67.14
2022-09-10T18:36:59.154Z,67.45
2022-09-10T18:39:29.158Z,67.55
2022-09-10T18:41:59.022Z,67.55
2022-09-10T18:44:29.976Z,67.58
2022-09-10T18:46:59.463Z,67.54
2022-09-10T18:49:28.113Z,67.77
2022-09-10T18:51:58.057Z,67.82
2022-09-10T18:54:29.116Z,68.03
2022-09-10T18:56:58.046Z,67.97
2022-09-10T18:59:27.258Z,67.86
2022-09-10T19:01:56.819Z,68.09
2022-09-10T19:04:28.694Z,68.06
2022-09-10T19:06:58.276Z,67.95
2022-09-10T19:09:28.629Z,67.55
2022-09-10T19:11:59.130Z,67.68
2022-09-10T19:14:29.951Z,67.67
2022-09-10T19:17:00.373Z,67.52
2022-09-10T19:19:31.740Z,67.85
2022-09-10T19:22:07.064Z,67.73
2022-09-10T19:24:54.931Z,67.66
2022-09-10T19:27:24.650Z,67.26
2022-09-10T19:29:53.779Z,67.21
2022-09-10T19:32:22.121Z,68.01
2022-09-10T19:34:52.449Z,67.39
2022-09-10T19:37:20.807Z,67.38
2022-09-10T19:39:49.187Z,67.36
2022-09-10T19:42:17.345Z,67.55
2022-09-10T19:44:45.437Z,67.62
2022-09-10T19:47:13.679Z,67.66
2022-09-10T19:49:41.842Z,68.03
2022-09-10T19:52:12.409Z,67.72
2022-09-10T19:54:40.557Z,67.73
2022-09-10T19:57:08.735Z,67.76
2022-09-10T19:59:36.796Z,67.44
2022-09-10T20:02:05.182Z,67.95
2022-09-10T20:04:33.854Z,67.14
2022-09-10T20:07:02.047Z,67.25
2022-09-10T20:09:31.537Z,66.76
2022-09-10T20:11:59.719Z,67.36
2022-09-10T20:14:28.374Z,67.35
2022-09-10T20:16:56.859Z,67.82
2022-09-10T20:19:24.993Z,68.05
2022-09-10T20:21:53.025Z,67.52
2022-09-10T20:24:22.082Z,67.03
2022-09-10T20:26:51.545Z,67.03
2022-09-10T20:29:20.466Z,66.89
2022-09-10T20:31:49.205Z,67.26
2022-09-10T20:34:20.553Z,67.06
2022-09-10T20:36:51.255Z,66.98
2022-09-10T20:39:25.117Z,66.60
2022-09-10T20:41:54.698Z,67.26
2022-09-10T20:44:22.954Z,67.24
2022-09-10T20:46:51.301Z,67.29
2022-09-10T20:49:19.602Z,66.93
2022-09-10T20:51:48.256Z,67.55
2022-09-10T20:54:19.097Z,67.68
2022-09-10T20:56:47.806Z,67.30
2022-09-10T20:59:19.305Z,67.62
2022-09-10T21:01:50.632Z,67.76
2022-09-10T21:04:19.831Z,67.80
2022-09-10T21:06:48.012Z,67.55
2022-09-10T21:09:16.254Z,67.90
2022-09-10T21:11:44.438Z,68.02
2022-09-10T21:14:13.455Z,68.29
2022-09-10T21:16:43.623Z,67.68
2022-09-10T21:19:14.958Z,68.40
2022-09-10T21:21:45.635Z,68.65
2022-09-10T21:24:17.236Z,68.14
2022-09-10T21:26:46.422Z,68.21
2022-09-10T21:29:17.441Z,68.55
2022-09-10T21:31:47.059Z,69.34
2022-09-10T21:34:15.477Z,69.71
2022-09-10T21:36:43.944Z,69.71
2022-09-10T21:39:17.401Z,69.38
2022-09-10T21:41:47.753Z,69.84
2022-09-10T21:44:19.801Z,69.61
2022-09-10T21:46:50.435Z,69.88
2022-09-10T21:49:20.275Z,70.22
2022-09-10T21:51:48.822Z,70.09
2022-09-10T21:54:20.660Z,70.37
2022-09-10T21:56:49.214Z,70.45
2022-09-10T21:59:17.562Z,70.54
2022-09-10T22:01:47.781Z,70.24
2022-09-10T22:04:22.223Z,70.27
2022-09-10T22:06:51.825Z,70.16
2022-09-10T22:09:21.218Z,70.00
2022-09-10T22:11:52.025Z,70.31
2022-09-10T22:14:22.576Z,70.31
2022-09-10T22:16:51.607Z,70.33
2022-09-10T22:19:24.705Z,70.15
2022-09-10T22:21:54.064Z,70.54
2022-09-10T22:24:22.566Z,70.28
2022-09-10T22:26:50.629Z,70.62
2022-09-10T22:29:20.897Z,70.97
2022-09-10T22:31:49.609Z,70.24
2022-09-10T22:34:20.885Z,70.43
2022-09-10T22:36:50.420Z,70.64
2022-09-10T22:39:20.308Z,70.28
2022-09-10T22:41:49.943Z,70.02
2022-09-10T22:44:19.832Z,69.97
2022-09-10T22:46:48.717Z,69.71
2022-09-10T22:49:17.297Z,70.37
2022-09-10T22:51:45.948Z,70.70
2022-09-10T22:54:16.557Z,70.77
2022-09-10T22:56:45.344Z,70.26
2022-09-10T22:59:14.858Z,70.21
2022-09-10T23:01:47.456Z,70.06
2022-09-10T23:04:16.551Z,70.45
2022-09-10T23:06:44.745Z,70.50
2022-09-10T23:09:16.399Z,70.41
2022-09-10T23:11:45.627Z,70.60
2022-09-10T23:14:17.740Z,70.54
2022-09-10T23:16:48.585Z,70.53
2022-09-10T23:19:19.345Z,70.29
2022-09-10T23:21:49.896Z,70.14
2022-09-10T23:24:22.468Z,70.77
2022-09-10T23:26:51.064Z,71.10
2022-09-10T23:29:23.003Z,70.54
2022-09-10T23:31:53.264Z,70.37
2022-09-10T23:34:22.423Z,69.63
2022-09-10T23:36:51.141Z,70.02
2022-09-10T23:39:22.863Z,70.53
2022-09-10T23:41:53.036Z,70.75
2022-09-10T23:44:21.767Z,70.42
2022-09-10T23:46:50.671Z,70.84
2022-09-10T23:49:18.843Z,70.26
2022-09-10T23:51:47.137Z,70.56
2022-09-10T23:54:15.234Z,70.59
2022-09-10T23:56:45.283Z,70.86
2022-09-10T23:59:15.308Z,70.74
